createdAt,value
2017-10-05T00:02:05.823Z,1.93
2017-10-05T00:04:33.273Z,2.50
2017-10-05T00:07:00.770Z,2.73
2017-10-05T00:09:28.226Z,2.03
2017-10-05T00:11:55.675Z,2.70
2017-10-05T00:14:23.342Z,2.53
2017-10-05T00:16:50.797Z,2.37
2017-10-05T00:19:18.245Z,2.40
2017-10-05T00:21:45.762Z,2.60
2017-10-05T00:24:13.193Z,2.13
2017-10-05T00:26:41.042Z,2.57
2017-10-05T00:29:08.602Z,2.80
2017-10-05T00:31:36.456Z,2.80
2017-10-05T00:34:03.901Z,2.20
2017-10-05T00:36:31.393Z,2.00
2017-10-05T00:38:58.841Z,2.60
2017-10-05T00:41:26.691Z,2.83
2017-10-05T00:43:54.155Z,2.90
2017-10-05T00:46:22.002Z,2.77
2017-10-05T00:48:49.453Z,2.40
2017-10-05T00:51:16.936Z,3.30
2017-10-05T00:53:44.779Z,3.00
2017-10-05T00:56:12.638Z,3.20
2017-10-05T00:58:40.127Z,2.70
2017-10-05T01:01:07.965Z,3.13
2017-10-05T01:03:35.422Z,2.97
2017-10-05T01:06:03.286Z,3.77
2017-10-05T01:08:30.742Z,2.93
2017-10-05T01:10:58.188Z,3.47
2017-10-05T01:13:25.681Z,4.10
2017-10-05T01:15:53.185Z,5.80
2017-10-05T01:18:20.645Z,4.43
2017-10-05T01:20:48.109Z,4.40
2017-10-05T01:23:15.597Z,4.70
2017-10-05T01:25:43.438Z,4.10
2017-10-05T01:28:10.899Z,5.03
2017-10-05T01:30:38.577Z,5.43
2017-10-05T01:33:06.422Z,4.90
2017-10-05T01:35:34.323Z,6.27
2017-10-05T01:38:01.783Z,6.30
2017-10-05T01:40:29.234Z,7.63
2017-10-05T01:42:56.818Z,7.83
2017-10-05T01:45:24.287Z,6.93
2017-10-05T01:47:51.737Z,7.30
2017-10-05T01:50:19.302Z,7.93
2017-10-05T01:52:46.758Z,10.60
2017-10-05T01:55:14.209Z,8.90
2017-10-05T01:57:41.690Z,8.20
2017-10-05T02:00:09.142Z,7.80
2017-10-05T02:02:36.593Z,8.47
2017-10-05T02:05:04.350Z,8.70
2017-10-05T02:07:31.819Z,9.13
2017-10-05T02:09:59.675Z,8.90
2017-10-05T02:12:27.422Z,8.70
2017-10-05T02:14:54.891Z,9.77
2017-10-05T02:17:22.346Z,9.77
2017-10-05T02:19:49.802Z,9.10
2017-10-05T02:22:17.266Z,10.47
2017-10-05T02:24:44.774Z,11.63
2017-10-05T02:27:12.235Z,11.37
2017-10-05T02:29:39.690Z,10.13
2017-10-05T02:32:07.180Z,10.17
2017-10-05T02:34:34.634Z,9.67
2017-10-05T02:37:02.086Z,9.10
2017-10-05T02:39:29.838Z,9.10
2017-10-05T02:41:57.294Z,9.83
2017-10-05T02:44:24.746Z,9.50
2017-10-05T02:46:52.214Z,9.73
2017-10-05T02:49:19.668Z,10.10
2017-10-05T02:51:47.125Z,11.13
2017-10-05T02:54:14.581Z,10.40
2017-10-05T02:56:42.038Z,10.37
2017-10-05T02:59:09.515Z,9.53
2017-10-05T03:01:37.361Z,10.17
2017-10-05T03:04:04.810Z,9.60
2017-10-05T03:06:32.292Z,9.47
2017-10-05T03:09:00.146Z,10.07
2017-10-05T03:11:27.994Z,9.27
2017-10-05T03:13:55.503Z,8.97
2017-10-05T03:16:22.945Z,9.80
2017-10-05T03:18:50.402Z,8.73
2017-10-05T03:21:18.218Z,8.67
2017-10-05T03:23:45.673Z,8.80
2017-10-05T03:26:13.129Z,11.10
2017-10-05T03:28:40.885Z,10.30
2017-10-05T03:31:08.347Z,9.30
2017-10-05T03:33:36.154Z,10.10
2017-10-05T03:36:03.653Z,8.80
2017-10-05T03:38:31.114Z,9.20
2017-10-05T03:40:58.584Z,11.17
2017-10-05T03:43:26.072Z,10.10
2017-10-05T03:45:53.917Z,10.50
2017-10-05T03:48:21.765Z,10.37
2017-10-05T03:50:49.831Z,9.03
2017-10-05T03:53:17.283Z,9.67
2017-10-05T03:55:44.733Z,9.80
2017-10-05T03:58:12.222Z,9.37
2017-10-05T04:00:40.074Z,10.37
2017-10-05T04:03:07.542Z,9.90
2017-10-05T04:05:35.430Z,9.37
2017-10-05T04:08:02.880Z,8.83
2017-10-05T04:10:30.346Z,8.50
2017-10-05T04:12:57.806Z,10.70
2017-10-05T04:15:25.255Z,9.60
2017-10-05T04:17:52.721Z,11.00
2017-10-05T04:20:20.182Z,9.60
2017-10-05T04:22:47.634Z,9.70
2017-10-05T04:25:15.122Z,10.57
2017-10-05T04:27:42.578Z,8.90
2017-10-05T04:30:10.033Z,10.70
2017-10-05T04:32:37.490Z,9.13
2017-10-05T04:35:04.948Z,10.03
2017-10-05T04:37:32.406Z,9.23
2017-10-05T04:40:00.155Z,9.10
2017-10-05T04:42:27.610Z,9.93
2017-10-05T04:44:55.066Z,9.60
2017-10-05T04:47:22.658Z,9.03
2017-10-05T04:49:50.501Z,9.20
2017-10-05T04:52:17.958Z,8.40
2017-10-05T04:54:45.414Z,9.47
2017-10-05T04:57:12.862Z,9.33
2017-10-05T04:59:40.351Z,10.90
2017-10-05T05:02:07.882Z,9.50
2017-10-05T05:04:35.738Z,9.90
2017-10-05T05:07:03.241Z,10.50
2017-10-05T05:09:30.701Z,11.93
2017-10-05T05:11:58.169Z,12.37
2017-10-05T05:14:25.667Z,11.87
2017-10-05T05:16:53.121Z,12.70
2017-10-05T05:19:20.577Z,13.53
2017-10-05T05:21:48.049Z,13.47
2017-10-05T05:24:15.902Z,12.27
2017-10-05T05:26:43.754Z,13.43
2017-10-05T05:29:11.334Z,13.67
2017-10-05T05:31:39.190Z,13.03
2017-10-05T05:34:06.642Z,14.00
2017-10-05T05:36:34.110Z,12.67
2017-10-05T05:39:01.970Z,13.17
2017-10-05T05:41:29.415Z,14.33
2017-10-05T05:43:56.869Z,13.00
2017-10-05T05:46:24.321Z,13.23
2017-10-05T05:48:51.902Z,13.40
2017-10-05T05:51:19.751Z,13.53
2017-10-05T05:53:47.605Z,14.03
2017-10-05T05:56:15.465Z,13.10
2017-10-05T05:58:43.029Z,14.73
2017-10-05T06:01:10.522Z,13.90
2017-10-05T06:03:38.002Z,14.73
2017-10-05T06:06:05.458Z,10.80
2017-10-05T06:08:32.937Z,12.13
2017-10-05T06:11:00.409Z,12.33
2017-10-05T06:13:27.867Z,11.33
2017-10-05T06:15:55.727Z,12.50
2017-10-05T06:18:23.310Z,10.77
2017-10-05T06:20:51.165Z,10.57
2017-10-05T06:23:19.017Z,10.80
2017-10-05T06:25:46.770Z,10.00
2017-10-05T06:28:14.231Z,9.97
2017-10-05T06:30:41.682Z,8.33
2017-10-05T06:33:09.165Z,8.00
2017-10-05T06:35:36.622Z,8.30
2017-10-05T06:38:04.469Z,8.40
2017-10-05T06:40:32.213Z,7.40
2017-10-05T06:42:59.665Z,6.90
2017-10-05T06:45:27.130Z,7.67
2017-10-05T06:47:54.577Z,7.93
2017-10-05T06:50:22.229Z,7.77
2017-10-05T06:52:49.723Z,8.10
2017-10-05T06:55:17.582Z,8.17
2017-10-05T06:57:45.429Z,7.50
2017-10-05T07:00:13.002Z,7.03
2017-10-05T07:02:40.850Z,7.80
2017-10-05T07:05:08.302Z,7.87
2017-10-05T07:07:35.777Z,6.50
2017-10-05T07:10:03.227Z,6.53
2017-10-05T07:12:30.798Z,6.83
2017-10-05T07:14:58.678Z,6.60
2017-10-05T07:17:26.133Z,6.13
2017-10-05T07:19:53.585Z,6.90
2017-10-05T07:22:21.061Z,6.13
2017-10-05T07:24:48.511Z,6.20
2017-10-05T07:27:15.982Z,6.17
2017-10-05T07:29:43.758Z,5.90
2017-10-05T07:32:11.214Z,5.60
2017-10-05T07:34:38.666Z,5.90
2017-10-05T07:37:06.166Z,5.20
2017-10-05T07:39:34.006Z,5.70
2017-10-05T07:42:01.462Z,7.20
2017-10-05T07:44:29.049Z,6.87
2017-10-05T07:46:56.894Z,5.83
2017-10-05T07:49:24.337Z,6.13
2017-10-05T07:51:51.834Z,6.37
2017-10-05T07:54:19.282Z,5.50
2017-10-05T07:56:47.123Z,5.80
2017-10-05T07:59:14.979Z,5.47
2017-10-05T08:01:42.430Z,6.47
2017-10-05T08:04:09.883Z,4.67
2017-10-05T08:06:37.378Z,5.50
2017-10-05T08:09:04.821Z,4.57
2017-10-05T08:11:32.665Z,4.30
2017-10-05T08:14:00.422Z,4.70
2017-10-05T08:16:27.867Z,4.13
2017-10-05T08:18:55.314Z,4.20
2017-10-05T08:21:22.785Z,4.00
2017-10-05T08:23:50.225Z,3.53
2017-10-05T08:26:17.677Z,3.50
2017-10-05T08:28:45.130Z,3.30
2017-10-05T08:31:12.574Z,3.57
2017-10-05T08:33:40.031Z,3.47
2017-10-05T08:36:07.527Z,3.83
2017-10-05T08:38:34.973Z,2.97
2017-10-05T08:41:02.426Z,3.67
2017-10-05T08:43:29.918Z,3.00
2017-10-05T08:45:57.753Z,2.47
2017-10-05T08:48:25.206Z,2.57
2017-10-05T08:50:52.685Z,2.30
2017-10-05T08:53:20.533Z,2.33
2017-10-05T08:55:47.983Z,2.50
2017-10-05T08:58:15.840Z,4.80
2017-10-05T09:00:43.290Z,2.50
2017-10-05T09:03:10.733Z,2.27
2017-10-05T09:05:38.409Z,2.53
2017-10-05T09:08:05.857Z,2.20
2017-10-05T09:10:33.310Z,2.10
2017-10-05T09:13:00.773Z,2.07
2017-10-05T09:15:28.222Z,2.37
2017-10-05T09:17:55.670Z,2.30
2017-10-05T09:20:23.165Z,2.50
2017-10-05T09:22:51.009Z,2.87
2017-10-05T09:25:18.467Z,2.63
2017-10-05T09:27:45.945Z,2.63
2017-10-05T09:30:13.781Z,2.20
2017-10-05T09:32:41.229Z,2.60
2017-10-05T09:35:08.689Z,2.70
2017-10-05T09:37:36.138Z,2.87
2017-10-05T09:40:03.591Z,2.63
2017-10-05T09:42:31.458Z,2.60
2017-10-05T09:44:58.909Z,2.90
2017-10-05T09:47:26.355Z,2.67
2017-10-05T09:49:54.135Z,2.70
2017-10-05T09:52:21.583Z,2.90
2017-10-05T09:54:49.030Z,3.57
2017-10-05T09:57:16.495Z,2.53
2017-10-05T09:59:43.933Z,3.27
2017-10-05T10:02:11.387Z,2.63
2017-10-05T10:04:38.873Z,3.23
2017-10-05T10:07:06.334Z,3.30
2017-10-05T10:09:33.794Z,3.40
2017-10-05T10:12:01.542Z,3.40
2017-10-05T10:14:28.998Z,3.27
2017-10-05T10:16:56.444Z,3.07
2017-10-05T10:19:23.942Z,3.37
2017-10-05T10:21:51.790Z,3.60
2017-10-05T10:24:19.240Z,3.30
2017-10-05T10:26:46.990Z,4.10
2017-10-05T10:29:14.438Z,4.03
2017-10-05T10:31:41.891Z,4.50
2017-10-05T10:34:09.377Z,3.70
2017-10-05T10:36:37.221Z,4.27
2017-10-05T10:39:04.665Z,4.60
2017-10-05T10:41:32.109Z,4.40
2017-10-05T10:43:59.558Z,3.23
2017-10-05T10:46:27.046Z,4.20
2017-10-05T10:48:54.486Z,4.00
2017-10-05T10:51:21.938Z,3.70
2017-10-05T10:53:49.415Z,4.43
2017-10-05T10:56:16.865Z,3.83
2017-10-05T10:58:44.317Z,4.10
2017-10-05T11:01:11.821Z,3.87
2017-10-05T11:03:39.266Z,3.60
2017-10-05T11:06:06.714Z,3.30
2017-10-05T11:08:34.857Z,3.00
2017-10-05T11:11:02.310Z,3.23
2017-10-05T11:13:29.754Z,3.30
2017-10-05T11:15:57.518Z,2.40
2017-10-05T11:18:24.965Z,2.70
2017-10-05T11:20:52.416Z,3.50
2017-10-05T11:23:19.882Z,2.93
2017-10-05T11:25:47.335Z,2.90
2017-10-05T11:28:14.785Z,2.40
2017-10-05T11:30:42.455Z,1.70
2017-10-05T11:33:09.910Z,1.87
2017-10-05T11:35:37.353Z,1.30
2017-10-05T11:38:04.833Z,1.37
2017-10-05T11:40:32.281Z,1.30
2017-10-05T11:42:59.726Z,1.67
2017-10-05T11:45:27.195Z,1.53
2017-10-05T11:47:54.647Z,2.00
2017-10-05T11:50:22.106Z,1.90
2017-10-05T11:52:49.758Z,1.83
2017-10-05T11:55:17.206Z,1.50
2017-10-05T11:57:44.650Z,1.60
2017-10-05T12:00:12.425Z,4.40
2017-10-05T12:02:39.873Z,5.77
2017-10-05T12:05:07.654Z,1.80
2017-10-05T12:07:35.310Z,1.63
2017-10-05T12:10:02.753Z,2.00
2017-10-05T12:12:30.207Z,1.80
2017-10-05T12:14:57.673Z,1.60
2017-10-05T12:17:25.120Z,1.60
2017-10-05T12:19:52.569Z,1.37
2017-10-05T12:22:20.029Z,1.43
2017-10-05T12:24:47.479Z,1.40
2017-10-05T12:27:14.930Z,1.60
2017-10-05T12:29:42.426Z,1.80
2017-10-05T12:32:09.873Z,1.40
2017-10-05T12:34:37.330Z,2.07
2017-10-05T12:37:05.321Z,10.73
2017-10-05T12:39:33.170Z,5.27
2017-10-05T12:42:01.022Z,2.00
2017-10-05T12:44:28.506Z,1.97
2017-10-05T12:46:56.359Z,2.40
2017-10-05T12:49:24.209Z,7.90
2017-10-05T12:51:51.715Z,9.20
2017-10-05T12:54:19.174Z,9.13
2017-10-05T12:56:46.632Z,1.90
2017-10-05T12:59:14.295Z,1.87
2017-10-05T13:01:41.755Z,1.90
2017-10-05T13:04:09.210Z,2.00
2017-10-05T13:06:37.067Z,1.60
2017-10-05T13:09:04.517Z,1.40
2017-10-05T13:11:32.001Z,1.57
2017-10-05T13:13:59.498Z,2.10
2017-10-05T13:16:27.351Z,1.93
2017-10-05T13:18:54.798Z,1.60
2017-10-05T13:21:22.298Z,1.80
2017-10-05T13:23:49.749Z,1.60
2017-10-05T13:26:17.214Z,1.60
2017-10-05T13:28:44.674Z,2.10
2017-10-05T13:31:12.129Z,1.97
2017-10-05T13:33:39.586Z,2.10
2017-10-05T13:36:07.074Z,2.07
2017-10-05T13:38:34.533Z,1.90
2017-10-05T13:41:01.990Z,1.90
2017-10-05T13:43:29.497Z,4.87
2017-10-05T13:45:56.973Z,3.60
2017-10-05T13:48:24.425Z,2.03
2017-10-05T13:50:51.911Z,2.00
2017-10-05T13:53:19.362Z,2.00
2017-10-05T13:55:46.810Z,1.80
2017-10-05T13:58:14.286Z,1.93
2017-10-05T14:00:42.138Z,1.97
2017-10-05T14:03:10.555Z,1.83
2017-10-05T14:05:38.049Z,2.47
2017-10-05T14:08:05.501Z,1.93
2017-10-05T14:10:32.957Z,1.90
2017-10-05T14:13:00.422Z,2.17
2017-10-05T14:15:27.886Z,1.73
2017-10-05T14:17:55.349Z,2.13
2017-10-05T14:20:22.822Z,2.00
2017-10-05T14:22:50.295Z,1.90
2017-10-05T14:25:27.789Z,2.27
2017-10-05T14:27:55.262Z,20.27
2017-10-05T14:30:22.711Z,9.67
2017-10-05T14:32:50.179Z,2.30
2017-10-05T14:35:17.635Z,2.70
2017-10-05T14:37:45.091Z,10.50
2017-10-05T14:40:12.586Z,2.20
2017-10-05T14:42:40.047Z,2.77
2017-10-05T14:45:07.565Z,2.00
2017-10-05T14:47:35.042Z,2.30
2017-10-05T14:50:02.494Z,2.50
2017-10-05T14:52:29.942Z,2.13
2017-10-05T14:54:57.425Z,2.60
2017-10-05T14:57:24.877Z,1.97
2017-10-05T14:59:52.334Z,2.50
2017-10-05T15:02:19.801Z,2.60
2017-10-05T15:04:47.641Z,1.90
2017-10-05T15:07:15.093Z,2.27
2017-10-05T15:09:42.614Z,2.00
2017-10-05T15:12:10.074Z,2.67
2017-10-05T15:14:37.565Z,2.50
2017-10-05T15:17:05.011Z,2.67
2017-10-05T15:19:32.462Z,2.73
2017-10-05T15:22:00.129Z,2.50
2017-10-05T15:24:27.577Z,2.63
2017-10-05T15:26:55.027Z,3.00
2017-10-05T15:29:22.618Z,3.23
2017-10-05T15:31:50.065Z,3.70
2017-10-05T15:34:17.515Z,2.83
2017-10-05T15:36:44.980Z,3.23
2017-10-05T15:39:12.829Z,2.37
2017-10-05T15:41:40.295Z,2.57
2017-10-05T15:44:07.753Z,2.70
2017-10-05T15:46:35.209Z,3.10
2017-10-05T15:49:02.690Z,2.67
2017-10-05T15:51:30.145Z,2.60
2017-10-05T15:53:57.603Z,5.97
2017-10-05T15:56:25.430Z,6.40
2017-10-05T15:58:52.878Z,3.33
2017-10-05T16:01:20.325Z,3.70
2017-10-05T16:03:47.865Z,13.70
2017-10-05T16:06:15.318Z,5.83
2017-10-05T16:08:42.778Z,3.67
2017-10-05T16:11:10.569Z,2.87
2017-10-05T16:13:38.039Z,2.30
2017-10-05T16:16:05.718Z,2.17
2017-10-05T16:18:33.838Z,2.70
2017-10-05T16:21:01.289Z,3.00
2017-10-05T16:23:28.782Z,2.60
2017-10-05T16:25:56.642Z,3.00
2017-10-05T16:28:24.095Z,2.67
2017-10-05T16:30:51.578Z,2.90
2017-10-05T16:33:19.418Z,3.00
2017-10-05T16:35:47.271Z,2.83
2017-10-05T16:38:15.770Z,3.83
2017-10-05T16:40:43.620Z,2.90
2017-10-05T16:43:11.065Z,3.13
2017-10-05T16:45:38.565Z,3.13
2017-10-05T16:48:06.382Z,3.90
2017-10-05T16:50:34.049Z,3.17
2017-10-05T16:53:01.538Z,2.80
2017-10-05T16:55:28.974Z,3.70
2017-10-05T16:57:56.434Z,2.57
2017-10-05T17:00:24.341Z,3.20
2017-10-05T17:02:51.813Z,3.10
2017-10-05T17:05:19.351Z,2.97
2017-10-05T17:07:46.809Z,3.37
2017-10-05T17:10:14.268Z,3.17
2017-10-05T17:12:41.730Z,3.13
2017-10-05T17:15:09.362Z,3.40
2017-10-05T17:17:36.829Z,4.00
2017-10-05T17:20:04.275Z,3.50
2017-10-05T17:22:32.093Z,3.20
2017-10-05T17:24:59.569Z,3.67
2017-10-05T17:27:27.414Z,3.80
2017-10-05T17:29:55.166Z,3.20
2017-10-05T17:32:22.626Z,3.83
2017-10-05T17:34:50.089Z,8.17
2017-10-05T17:37:17.584Z,5.80
2017-10-05T17:39:45.052Z,5.70
2017-10-05T17:42:12.508Z,3.53
2017-10-05T17:44:39.965Z,3.33
2017-10-05T17:47:07.704Z,3.73
2017-10-05T17:49:35.153Z,4.50
2017-10-05T17:52:03.009Z,3.37
2017-10-05T17:54:30.896Z,2.87
2017-10-05T17:56:58.364Z,2.80
2017-10-05T17:59:25.835Z,34.27
2017-10-05T18:01:53.700Z,8.37
2017-10-05T18:04:21.145Z,5.10
2017-10-05T18:06:48.602Z,2.80
2017-10-05T18:09:16.069Z,2.53
2017-10-05T18:11:43.565Z,3.30
2017-10-05T18:14:11.413Z,4.07
2017-10-05T18:16:38.870Z,3.20
2017-10-05T18:19:06.629Z,24.63
2017-10-05T18:21:34.291Z,4.67
2017-10-05T18:24:02.988Z,2.80
2017-10-05T18:26:31.110Z,4.17
2017-10-05T18:28:58.593Z,2.60
2017-10-05T18:31:26.046Z,3.13
2017-10-05T18:33:53.549Z,3.10
2017-10-05T18:36:21.389Z,3.47
2017-10-05T18:38:48.865Z,3.20
2017-10-05T18:41:16.348Z,3.23
2017-10-05T18:43:43.838Z,2.97
2017-10-05T18:46:11.353Z,12.93
2017-10-05T18:48:38.923Z,4.10
2017-10-05T18:51:06.377Z,3.37
2017-10-05T18:53:33.886Z,3.57
2017-10-05T18:56:01.848Z,3.60
2017-10-05T18:58:29.585Z,2.87
2017-10-05T19:00:57.683Z,4.00
2017-10-05T19:03:26.073Z,3.50
2017-10-05T19:05:53.783Z,3.60
2017-10-05T19:08:21.556Z,5.53
2017-10-05T19:10:49.866Z,3.57
2017-10-05T19:13:18.296Z,4.17
2017-10-05T19:15:46.779Z,3.97
2017-10-05T19:18:15.043Z,4.00
2017-10-05T19:20:43.605Z,6.73
2017-10-05T19:23:12.351Z,4.27
2017-10-05T19:25:40.503Z,3.10
2017-10-05T19:28:08.675Z,4.23
2017-10-05T19:30:37.099Z,13.73
2017-10-05T19:33:05.465Z,12.30
2017-10-05T19:35:33.686Z,14.27
2017-10-05T19:38:02.829Z,4.73
2017-10-05T19:40:31.326Z,3.10
2017-10-05T19:42:59.430Z,3.60
2017-10-05T19:45:27.854Z,6.20
2017-10-05T19:47:55.853Z,4.90
2017-10-05T19:50:24.122Z,3.57
2017-10-05T19:52:52.420Z,4.20
2017-10-05T19:55:20.487Z,3.70
2017-10-05T19:57:48.410Z,4.63
2017-10-05T20:00:16.734Z,3.20
2017-10-05T20:02:44.801Z,3.00
2017-10-05T20:05:12.619Z,3.80
2017-10-05T20:07:40.432Z,3.47
2017-10-05T20:10:08.708Z,3.70
2017-10-05T20:12:36.472Z,4.20
2017-10-05T20:15:04.188Z,3.83
2017-10-05T20:17:49.694Z,3.40
2017-10-05T20:44:46.280Z,3.27
2017-10-05T20:47:13.739Z,11.30
2017-10-05T20:49:41.199Z,3.33
2017-10-05T20:52:08.784Z,4.60
2017-10-05T20:54:36.239Z,4.07
2017-10-05T20:57:03.691Z,3.93
2017-10-05T20:59:31.467Z,4.70
2017-10-05T21:01:58.928Z,4.13
2017-10-05T21:04:26.379Z,3.40
2017-10-05T21:06:54.024Z,3.40
2017-10-05T21:09:21.476Z,4.17
2017-10-05T21:11:48.971Z,4.07
2017-10-05T21:14:17.118Z,3.60
2017-10-05T21:16:44.978Z,4.00
2017-10-05T21:19:12.480Z,3.67
2017-10-05T21:21:39.938Z,3.00
2017-10-05T21:24:07.406Z,3.70
2017-10-05T21:26:34.958Z,2.90
2017-10-05T21:29:02.422Z,3.00
2017-10-05T21:31:29.883Z,3.83
2017-10-05T21:33:57.666Z,3.10
2017-10-05T21:36:25.127Z,4.27
2017-10-05T21:38:52.592Z,3.83
2017-10-05T21:41:20.174Z,3.27
2017-10-05T21:43:48.002Z,3.40
2017-10-05T21:46:15.464Z,2.83
2017-10-05T21:48:42.932Z,2.93
2017-10-05T21:51:10.838Z,3.10
2017-10-05T21:53:38.299Z,3.53
2017-10-05T21:56:05.762Z,3.07
2017-10-05T21:58:33.251Z,2.33
2017-10-05T22:01:00.708Z,2.50
2017-10-05T22:03:28.159Z,2.53
2017-10-05T22:05:56.047Z,2.50
2017-10-05T22:08:23.904Z,3.23
2017-10-05T22:10:51.766Z,3.20
2017-10-05T22:13:19.926Z,3.80
2017-10-05T22:15:47.390Z,3.23
2017-10-05T22:18:15.250Z,3.03
2017-10-05T22:20:42.751Z,3.37
2017-10-05T22:23:10.206Z,3.17
2017-10-05T22:25:37.670Z,2.90
2017-10-05T22:28:05.131Z,3.20
2017-10-05T22:30:32.595Z,3.40
2017-10-05T22:33:00.096Z,4.50
2017-10-05T22:35:27.570Z,4.47
2017-10-05T22:37:55.027Z,3.20
2017-10-05T22:40:22.515Z,3.17
2017-10-05T22:42:49.978Z,3.63
2017-10-05T22:45:17.430Z,2.80
2017-10-05T22:47:44.903Z,3.80
2017-10-05T22:50:12.358Z,2.93
2017-10-05T22:52:39.816Z,3.53
2017-10-05T22:55:07.571Z,3.97
2017-10-05T22:57:35.026Z,2.70
2017-10-05T23:00:02.486Z,3.23
2017-10-05T23:02:29.971Z,3.03
2017-10-05T23:04:57.823Z,3.00
2017-10-05T23:07:25.671Z,2.80
2017-10-05T23:09:53.155Z,2.60
2017-10-05T23:12:21.006Z,2.63
2017-10-05T23:14:48.458Z,3.53
2017-10-05T23:17:16.205Z,4.30
2017-10-05T23:19:43.659Z,3.10
2017-10-05T23:22:11.130Z,3.30
2017-10-05T23:24:38.607Z,3.47
2017-10-05T23:27:06.465Z,3.17
2017-10-05T23:29:34.331Z,3.07
2017-10-05T23:32:02.198Z,2.67
2017-10-05T23:34:30.055Z,3.20
2017-10-05T23:36:57.919Z,3.10
2017-10-05T23:39:25.799Z,3.87
2017-10-05T23:41:53.293Z,3.20
2017-10-05T23:44:20.751Z,4.13
2017-10-05T23:46:48.435Z,3.53
2017-10-05T23:49:15.896Z,2.80
2017-10-05T23:51:43.354Z,3.40
2017-10-05T23:54:10.931Z,4.00
2017-10-05T23:56:38.783Z,3.40
2017-10-05T23:59:06.634Z,4.00
